sensor_id;sensor_type;location;lat;lon;timestamp;temperature;humidity
31819;DHT22;18384;48.860;9.188;2023-03-24T00:01:24;15.20;95.00
31819;DHT22;18384;48.860;9.188;2023-03-24T00:03:50;15.20;94.90
31819;DHT22;18384;48.860;9.188;2023-03-24T00:06:19;15.20;95.30
31819;DHT22;18384;48.860;9.188;2023-03-24T00:08:47;15.20;95.30
31819;DHT22;18384;48.860;9.188;2023-03-24T00:11:13;15.20;95.60
31819;DHT22;18384;48.860;9.188;2023-03-24T00:13:42;15.10;95.20
31819;DHT22;18384;48.860;9.188;2023-03-24T00:16:11;15.20;95.30
31819;DHT22;18384;48.860;9.188;2023-03-24T00:18:38;15.20;95.10
31819;DHT22;18384;48.860;9.188;2023-03-24T00:21:06;15.10;95.60
31819;DHT22;18384;48.860;9.188;2023-03-24T00:23:33;15.10;95.40
31819;DHT22;18384;48.860;9.188;2023-03-24T00:26:08;15.10;95.70
31819;DHT22;18384;48.860;9.188;2023-03-24T00:28:40;15.20;95.50
31819;DHT22;18384;48.860;9.188;2023-03-24T00:31:08;15.20;95.50
31819;DHT22;18384;48.860;9.188;2023-03-24T00:33:35;15.20;95.40
31819;DHT22;18384;48.860;9.188;2023-03-24T00:36:07;15.20;95.00
31819;DHT22;18384;48.860;9.188;2023-03-24T00:38:38;15.10;95.00
31819;DHT22;18384;48.860;9.188;2023-03-24T00:41:07;15.10;95.10
31819;DHT22;18384;48.860;9.188;2023-03-24T00:43:36;15.10;94.90
31819;DHT22;18384;48.860;9.188;2023-03-24T00:46:06;15.10;94.80
31819;DHT22;18384;48.860;9.188;2023-03-24T00:48:36;15.10;95.00
31819;DHT22;18384;48.860;9.188;2023-03-24T00:51:04;15.10;94.80
31819;DHT22;18384;48.860;9.188;2023-03-24T00:53:36;15.10;94.80
31819;DHT22;18384;48.860;9.188;2023-03-24T00:56:08;15.20;94.90
31819;DHT22;18384;48.860;9.188;2023-03-24T00:58:34;15.10;94.90
31819;DHT22;18384;48.860;9.188;2023-03-24T01:01:00;15.10;95.20
31819;DHT22;18384;48.860;9.188;2023-03-24T01:03:26;15.10;94.90
31819;DHT22;18384;48.860;9.188;2023-03-24T01:06:00;15.10;94.90
31819;DHT22;18384;48.860;9.188;2023-03-24T01:08:26;15.10;94.90
31819;DHT22;18384;48.860;9.188;2023-03-24T01:10:52;14.90;94.70
31819;DHT22;18384;48.860;9.188;2023-03-24T01:13:21;14.90;94.60
31819;DHT22;18384;48.860;9.188;2023-03-24T01:15:49;14.90;94.80
31819;DHT22;18384;48.860;9.188;2023-03-24T01:18:16;14.90;94.70
31819;DHT22;18384;48.860;9.188;2023-03-24T01:20:44;14.80;94.80
31819;DHT22;18384;48.860;9.188;2023-03-24T01:23:14;14.80;94.80
31819;DHT22;18384;48.860;9.188;2023-03-24T01:25:44;14.80;94.60
31819;DHT22;18384;48.860;9.188;2023-03-24T01:28:14;14.80;94.60
31819;DHT22;18384;48.860;9.188;2023-03-24T01:30:43;15.80;94.80
31819;DHT22;18384;48.860;9.188;2023-03-24T01:33:09;14.90;94.50
31819;DHT22;18384;48.860;9.188;2023-03-24T01:35:35;14.90;94.30
31819;DHT22;18384;48.860;9.188;2023-03-24T01:38:07;14.90;94.20
31819;DHT22;18384;48.860;9.188;2023-03-24T01:40:37;15.10;94.00
31819;DHT22;18384;48.860;9.188;2023-03-24T01:43:06;15.00;94.10
31819;DHT22;18384;48.860;9.188;2023-03-24T01:46:16;15.00;93.90
31819;DHT22;18384;48.860;9.188;2023-03-24T01:49:01;15.10;94.00
31819;DHT22;18384;48.860;9.188;2023-03-24T01:51:40;15.10;94.00
31819;DHT22;18384;48.860;9.188;2023-03-24T01:54:13;15.10;94.20
31819;DHT22;18384;48.860;9.188;2023-03-24T01:56:56;15.10;94.70
31819;DHT22;18384;48.860;9.188;2023-03-24T01:59:38;15.10;94.80
31819;DHT22;18384;48.860;9.188;2023-03-24T02:02:08;15.00;94.70
31819;DHT22;18384;48.860;9.188;2023-03-24T02:04:44;15.00;94.90
31819;DHT22;18384;48.860;9.188;2023-03-24T02:07:42;15.00;94.70
31819;DHT22;18384;48.860;9.188;2023-03-24T02:10:15;15.00;94.70
31819;DHT22;18384;48.860;9.188;2023-03-24T02:12:43;15.00;94.80
31819;DHT22;18384;48.860;9.188;2023-03-24T02:15:11;14.00;94.30
31819;DHT22;18384;48.860;9.188;2023-03-24T02:18:00;15.00;94.40
31819;DHT22;18384;48.860;9.188;2023-03-24T02:24:55;15.10;94.50
31819;DHT22;18384;48.860;9.188;2023-03-24T02:28:08;15.10;94.30
31819;DHT22;18384;48.860;9.188;2023-03-24T02:34:09;15.10;94.30
31819;DHT22;18384;48.860;9.188;2023-03-24T02:37:13;15.10;94.00
31819;DHT22;18384;48.860;9.188;2023-03-24T02:43:36;15.10;94.00
31819;DHT22;18384;48.860;9.188;2023-03-24T02:49:08;15.10;93.90
31819;DHT22;18384;48.860;9.188;2023-03-24T02:51:57;15.00;94.00
31819;DHT22;18384;48.860;9.188;2023-03-24T02:54:41;15.10;94.00
31819;DHT22;18384;48.860;9.188;2023-03-24T02:57:42;14.90;93.80
31819;DHT22;18384;48.860;9.188;2023-03-24T03:00:37;16.20;94.20
31819;DHT22;18384;48.860;9.188;2023-03-24T03:03:41;15.00;93.70
31819;DHT22;18384;48.860;9.188;2023-03-24T03:06:24;15.00;93.70
31819;DHT22;18384;48.860;9.188;2023-03-24T03:08:55;14.90;93.60
31819;DHT22;18384;48.860;9.188;2023-03-24T03:11:22;14.90;93.60
31819;DHT22;18384;48.860;9.188;2023-03-24T03:13:55;14.90;93.60
31819;DHT22;18384;48.860;9.188;2023-03-24T03:16:32;15.00;93.50
31819;DHT22;18384;48.860;9.188;2023-03-24T03:19:17;15.00;93.60
31819;DHT22;18384;48.860;9.188;2023-03-24T03:21:59;15.10;93.50
31819;DHT22;18384;48.860;9.188;2023-03-24T03:24:32;15.10;93.50
31819;DHT22;18384;48.860;9.188;2023-03-24T03:27:28;15.10;93.30
31819;DHT22;18384;48.860;9.188;2023-03-24T03:30:05;15.20;93.30
31819;DHT22;18384;48.860;9.188;2023-03-24T03:32:42;15.20;93.20
31819;DHT22;18384;48.860;9.188;2023-03-24T03:35:28;15.20;93.40
31819;DHT22;18384;48.860;9.188;2023-03-24T03:38:13;15.30;93.20
31819;DHT22;18384;48.860;9.188;2023-03-24T03:40:52;15.20;93.40
31819;DHT22;18384;48.860;9.188;2023-03-24T03:43:25;15.30;93.20
31819;DHT22;18384;48.860;9.188;2023-03-24T03:45:53;15.30;93.30
31819;DHT22;18384;48.860;9.188;2023-03-24T03:48:19;15.30;93.00
31819;DHT22;18384;48.860;9.188;2023-03-24T03:50:46;15.20;93.20
31819;DHT22;18384;48.860;9.188;2023-03-24T03:53:15;15.20;93.10
31819;DHT22;18384;48.860;9.188;2023-03-24T03:55:42;15.20;93.20
31819;DHT22;18384;48.860;9.188;2023-03-24T03:58:09;15.20;93.20
31819;DHT22;18384;48.860;9.188;2023-03-24T04:00:35;15.20;93.30
31819;DHT22;18384;48.860;9.188;2023-03-24T04:08:19;15.20;93.20
31819;DHT22;18384;48.860;9.188;2023-03-24T04:12:58;15.20;93.10
31819;DHT22;18384;48.860;9.188;2023-03-24T04:15:43;15.20;92.60
31819;DHT22;18384;48.860;9.188;2023-03-24T04:18:31;15.20;92.90
31819;DHT22;18384;48.860;9.188;2023-03-24T04:23:00;15.20;92.80
31819;DHT22;18384;48.860;9.188;2023-03-24T04:26:26;15.20;92.50
31819;DHT22;18384;48.860;9.188;2023-03-24T04:29:05;15.20;92.60
31819;DHT22;18384;48.860;9.188;2023-03-24T04:31:52;15.20;92.40
31819;DHT22;18384;48.860;9.188;2023-03-24T04:38:05;15.30;92.50
31819;DHT22;18384;48.860;9.188;2023-03-24T04:40:40;15.30;92.40
31819;DHT22;18384;48.860;9.188;2023-03-24T04:43:09;15.30;92.20
31819;DHT22;18384;48.860;9.188;2023-03-24T04:45:39;15.30;92.20
31819;DHT22;18384;48.860;9.188;2023-03-24T04:48:07;15.30;92.20
31819;DHT22;18384;48.860;9.188;2023-03-24T04:50:39;15.30;92.10
31819;DHT22;18384;48.860;9.188;2023-03-24T04:53:08;15.40;92.20
31819;DHT22;18384;48.860;9.188;2023-03-24T04:59:53;15.40;92.30
31819;DHT22;18384;48.860;9.188;2023-03-24T05:02:19;15.40;92.20
31819;DHT22;18384;48.860;9.188;2023-03-24T05:04:45;15.40;92.30
31819;DHT22;18384;48.860;9.188;2023-03-24T05:07:12;15.50;92.40
31819;DHT22;18384;48.860;9.188;2023-03-24T05:09:39;15.50;92.50
31819;DHT22;18384;48.860;9.188;2023-03-24T05:12:06;15.60;92.50
31819;DHT22;18384;48.860;9.188;2023-03-24T05:14:32;15.50;92.60
31819;DHT22;18384;48.860;9.188;2023-03-24T05:16:58;15.60;92.90
31819;DHT22;18384;48.860;9.188;2023-03-24T05:19:24;15.60;93.10
31819;DHT22;18384;48.860;9.188;2023-03-24T05:21:51;15.60;93.20
31819;DHT22;18384;48.860;9.188;2023-03-24T05:24:18;15.50;93.30
31819;DHT22;18384;48.860;9.188;2023-03-24T05:26:44;15.60;94.00
31819;DHT22;18384;48.860;9.188;2023-03-24T05:29:10;15.50;94.60
31819;DHT22;18384;48.860;9.188;2023-03-24T05:31:36;15.50;94.70
31819;DHT22;18384;48.860;9.188;2023-03-24T05:34:02;15.40;95.20
31819;DHT22;18384;48.860;9.188;2023-03-24T05:36:29;15.30;95.50
31819;DHT22;18384;48.860;9.188;2023-03-24T05:38:55;15.20;95.50
31819;DHT22;18384;48.860;9.188;2023-03-24T05:41:21;15.20;95.70
31819;DHT22;18384;48.860;9.188;2023-03-24T05:43:47;15.20;95.70
31819;DHT22;18384;48.860;9.188;2023-03-24T05:46:13;15.10;96.70
31819;DHT22;18384;48.860;9.188;2023-03-24T05:48:39;15.00;96.90
31819;DHT22;18384;48.860;9.188;2023-03-24T05:51:06;15.00;97.10
31819;DHT22;18384;48.860;9.188;2023-03-24T05:53:32;15.00;97.30
31819;DHT22;18384;48.860;9.188;2023-03-24T05:55:58;14.80;97.10
31819;DHT22;18384;48.860;9.188;2023-03-24T05:58:24;15.00;97.90
31819;DHT22;18384;48.860;9.188;2023-03-24T06:00:51;15.00;98.00
31819;DHT22;18384;48.860;9.188;2023-03-24T06:03:19;13.70;97.90
31819;DHT22;18384;48.860;9.188;2023-03-24T06:05:45;14.90;98.20
31819;DHT22;18384;48.860;9.188;2023-03-24T06:08:12;14.90;98.10
31819;DHT22;18384;48.860;9.188;2023-03-24T06:10:38;14.90;98.70
31819;DHT22;18384;48.860;9.188;2023-03-24T06:13:05;14.90;98.60
31819;DHT22;18384;48.860;9.188;2023-03-24T06:15:34;14.90;98.70
31819;DHT22;18384;48.860;9.188;2023-03-24T06:18:01;14.90;99.10
31819;DHT22;18384;48.860;9.188;2023-03-24T06:20:29;14.90;99.20
31819;DHT22;18384;48.860;9.188;2023-03-24T06:22:55;14.90;99.20
31819;DHT22;18384;48.860;9.188;2023-03-24T06:25:23;14.90;99.40
31819;DHT22;18384;48.860;9.188;2023-03-24T06:27:52;15.00;99.60
31819;DHT22;18384;48.860;9.188;2023-03-24T06:30:18;15.00;99.60
31819;DHT22;18384;48.860;9.188;2023-03-24T06:32:44;14.90;99.60
31819;DHT22;18384;48.860;9.188;2023-03-24T06:35:14;15.00;99.70
31819;DHT22;18384;48.860;9.188;2023-03-24T06:37:41;14.90;99.70
31819;DHT22;18384;48.860;9.188;2023-03-24T06:40:08;15.00;99.70
31819;DHT22;18384;48.860;9.188;2023-03-24T06:42:39;15.00;99.70
31819;DHT22;18384;48.860;9.188;2023-03-24T06:45:06;15.00;99.50
31819;DHT22;18384;48.860;9.188;2023-03-24T06:47:33;15.10;99.40
31819;DHT22;18384;48.860;9.188;2023-03-24T06:50:00;15.00;99.50
31819;DHT22;18384;48.860;9.188;2023-03-24T06:52:26;15.10;99.20
31819;DHT22;18384;48.860;9.188;2023-03-24T06:54:53;15.10;99.10
31819;DHT22;18384;48.860;9.188;2023-03-24T06:57:19;15.10;98.90
31819;DHT22;18384;48.860;9.188;2023-03-24T06:59:46;15.00;99.00
31819;DHT22;18384;48.860;9.188;2023-03-24T07:02:12;15.10;99.10
31819;DHT22;18384;48.860;9.188;2023-03-24T07:04:38;15.00;99.40
31819;DHT22;18384;48.860;9.188;2023-03-24T07:07:05;15.00;99.30
31819;DHT22;18384;48.860;9.188;2023-03-24T07:09:31;15.00;99.40
31819;DHT22;18384;48.860;9.188;2023-03-24T07:11:57;15.00;99.40
31819;DHT22;18384;48.860;9.188;2023-03-24T07:14:23;15.10;99.60
31819;DHT22;18384;48.860;9.188;2023-03-24T07:16:51;15.00;99.60
31819;DHT22;18384;48.860;9.188;2023-03-24T07:19:18;14.90;99.80
31819;DHT22;18384;48.860;9.188;2023-03-24T07:21:44;14.80;99.90
31819;DHT22;18384;48.860;9.188;2023-03-24T07:24:15;14.80;99.90
31819;DHT22;18384;48.860;9.188;2023-03-24T07:26:42;14.70;99.90
31819;DHT22;18384;48.860;9.188;2023-03-24T07:29:09;14.70;99.90
31819;DHT22;18384;48.860;9.188;2023-03-24T07:31:36;14.60;99.90
31819;DHT22;18384;48.860;9.188;2023-03-24T07:34:04;14.60;99.90
31819;DHT22;18384;48.860;9.188;2023-03-24T07:36:31;14.60;99.90
31819;DHT22;18384;48.860;9.188;2023-03-24T07:38:57;14.60;99.90
31819;DHT22;18384;48.860;9.188;2023-03-24T07:41:23;14.50;99.90
31819;DHT22;18384;48.860;9.188;2023-03-24T07:43:51;14.40;99.90
31819;DHT22;18384;48.860;9.188;2023-03-24T07:46:17;14.50;99.90
31819;DHT22;18384;48.860;9.188;2023-03-24T07:48:43;14.50;99.90
31819;DHT22;18384;48.860;9.188;2023-03-24T07:51:10;14.50;99.90
31819;DHT22;18384;48.860;9.188;2023-03-24T07:53:36;14.30;99.90
31819;DHT22;18384;48.860;9.188;2023-03-24T07:56:02;14.30;99.90
31819;DHT22;18384;48.860;9.188;2023-03-24T07:58:28;14.30;99.90
31819;DHT22;18384;48.860;9.188;2023-03-24T08:00:54;14.40;99.90
31819;DHT22;18384;48.860;9.188;2023-03-24T08:03:20;14.20;99.90
31819;DHT22;18384;48.860;9.188;2023-03-24T08:05:49;14.40;99.90
31819;DHT22;18384;48.860;9.188;2023-03-24T08:08:15;14.30;99.90
31819;DHT22;18384;48.860;9.188;2023-03-24T08:10:42;14.30;99.90
31819;DHT22;18384;48.860;9.188;2023-03-24T08:13:10;14.30;99.90
31819;DHT22;18384;48.860;9.188;2023-03-24T08:15:36;14.30;99.90
31819;DHT22;18384;48.860;9.188;2023-03-24T08:18:02;14.20;99.90
31819;DHT22;18384;48.860;9.188;2023-03-24T08:20:28;14.30;99.90
31819;DHT22;18384;48.860;9.188;2023-03-24T08:22:55;14.30;99.90
31819;DHT22;18384;48.860;9.188;2023-03-24T08:25:23;14.30;99.90
31819;DHT22;18384;48.860;9.188;2023-03-24T08:27:50;14.40;99.90
31819;DHT22;18384;48.860;9.188;2023-03-24T08:30:19;14.40;99.90
31819;DHT22;18384;48.860;9.188;2023-03-24T08:32:55;14.50;99.90
31819;DHT22;18384;48.860;9.188;2023-03-24T08:35:27;14.40;99.90
31819;DHT22;18384;48.860;9.188;2023-03-24T08:37:57;14.50;99.90
31819;DHT22;18384;48.860;9.188;2023-03-24T08:40:27;14.60;99.90
31819;DHT22;18384;48.860;9.188;2023-03-24T08:42:56;14.70;99.90
31819;DHT22;18384;48.860;9.188;2023-03-24T08:45:26;14.80;99.90
31819;DHT22;18384;48.860;9.188;2023-03-24T08:47:56;14.80;99.90
31819;DHT22;18384;48.860;9.188;2023-03-24T08:50:26;14.90;99.90
31819;DHT22;18384;48.860;9.188;2023-03-24T08:52:55;14.90;99.90
31819;DHT22;18384;48.860;9.188;2023-03-24T08:55:21;14.90;99.90
31819;DHT22;18384;48.860;9.188;2023-03-24T08:57:48;14.90;99.90
31819;DHT22;18384;48.860;9.188;2023-03-24T09:00:17;15.00;99.90
31819;DHT22;18384;48.860;9.188;2023-03-24T09:02:46;15.00;99.90
31819;DHT22;18384;48.860;9.188;2023-03-24T09:05:17;15.10;99.90
31819;DHT22;18384;48.860;9.188;2023-03-24T09:07:44;15.10;99.90
31819;DHT22;18384;48.860;9.188;2023-03-24T09:10:11;15.00;99.90
31819;DHT22;18384;48.860;9.188;2023-03-24T09:12:38;15.00;99.90
31819;DHT22;18384;48.860;9.188;2023-03-24T09:15:06;15.10;99.90
31819;DHT22;18384;48.860;9.188;2023-03-24T09:17:34;15.00;99.90
31819;DHT22;18384;48.860;9.188;2023-03-24T09:20:02;15.10;99.90
31819;DHT22;18384;48.860;9.188;2023-03-24T09:22:44;15.00;99.90
31819;DHT22;18384;48.860;9.188;2023-03-24T09:25:18;15.00;99.90
31819;DHT22;18384;48.860;9.188;2023-03-24T09:27:45;14.90;99.90
31819;DHT22;18384;48.860;9.188;2023-03-24T09:30:13;14.80;99.90
31819;DHT22;18384;48.860;9.188;2023-03-24T09:32:41;14.80;99.90
31819;DHT22;18384;48.860;9.188;2023-03-24T09:35:07;14.80;99.90
31819;DHT22;18384;48.860;9.188;2023-03-24T09:37:35;14.80;99.90
31819;DHT22;18384;48.860;9.188;2023-03-24T09:40:02;14.80;99.90
31819;DHT22;18384;48.860;9.188;2023-03-24T09:42:32;14.90;99.90
31819;DHT22;18384;48.860;9.188;2023-03-24T09:45:17;15.00;99.90
31819;DHT22;18384;48.860;9.188;2023-03-24T09:47:55;15.20;99.90
31819;DHT22;18384;48.860;9.188;2023-03-24T09:50:47;15.30;99.90
31819;DHT22;18384;48.860;9.188;2023-03-24T09:53:41;15.30;99.90
31819;DHT22;18384;48.860;9.188;2023-03-24T09:56:16;15.40;99.90
31819;DHT22;18384;48.860;9.188;2023-03-24T09:58:47;15.50;99.90
31819;DHT22;18384;48.860;9.188;2023-03-24T10:01:22;15.60;99.90
31819;DHT22;18384;48.860;9.188;2023-03-24T10:03:49;15.60;99.90
31819;DHT22;18384;48.860;9.188;2023-03-24T10:06:27;15.70;99.90
31819;DHT22;18384;48.860;9.188;2023-03-24T10:09:10;15.90;99.90
31819;DHT22;18384;48.860;9.188;2023-03-24T10:15:27;16.30;99.40
31819;DHT22;18384;48.860;9.188;2023-03-24T10:18:22;16.50;99.40
31819;DHT22;18384;48.860;9.188;2023-03-24T10:21:04;16.70;98.80
31819;DHT22;18384;48.860;9.188;2023-03-24T10:27:01;16.70;99.10
31819;DHT22;18384;48.860;9.188;2023-03-24T10:29:35;16.60;98.00
31819;DHT22;18384;48.860;9.188;2023-03-24T10:32:27;16.50;97.60
31819;DHT22;18384;48.860;9.188;2023-03-24T10:34:57;16.60;97.40
31819;DHT22;18384;48.860;9.188;2023-03-24T10:37:32;16.60;97.00
31819;DHT22;18384;48.860;9.188;2023-03-24T10:39:59;16.70;97.50
31819;DHT22;18384;48.860;9.188;2023-03-24T10:42:30;16.70;97.00
31819;DHT22;18384;48.860;9.188;2023-03-24T10:44:57;16.70;97.20
31819;DHT22;18384;48.860;9.188;2023-03-24T10:47:26;16.60;96.90
31819;DHT22;18384;48.860;9.188;2023-03-24T10:49:59;16.50;97.00
31819;DHT22;18384;48.860;9.188;2023-03-24T10:52:27;16.50;97.10
31819;DHT22;18384;48.860;9.188;2023-03-24T10:55:02;16.60;96.90
31819;DHT22;18384;48.860;9.188;2023-03-24T10:57:30;16.70;97.00
31819;DHT22;18384;48.860;9.188;2023-03-24T11:00:08;16.80;96.60
31819;DHT22;18384;48.860;9.188;2023-03-24T11:02:41;16.80;96.50
31819;DHT22;18384;48.860;9.188;2023-03-24T11:05:17;17.00;96.50
31819;DHT22;18384;48.860;9.188;2023-03-24T11:07:46;17.10;96.10
31819;DHT22;18384;48.860;9.188;2023-03-24T11:10:16;17.20;95.30
31819;DHT22;18384;48.860;9.188;2023-03-24T11:13:52;17.10;95.40
31819;DHT22;18384;48.860;9.188;2023-03-24T11:16:27;17.10;95.80
31819;DHT22;18384;48.860;9.188;2023-03-24T11:19:05;17.10;95.40
31819;DHT22;18384;48.860;9.188;2023-03-24T11:21:41;17.30;95.20
31819;DHT22;18384;48.860;9.188;2023-03-24T11:24:14;17.30;95.30
31819;DHT22;18384;48.860;9.188;2023-03-24T11:27:03;17.20;95.10
31819;DHT22;18384;48.860;9.188;2023-03-24T11:29:37;17.10;95.60
31819;DHT22;18384;48.860;9.188;2023-03-24T11:32:11;17.10;95.70
31819;DHT22;18384;48.860;9.188;2023-03-24T11:34:44;17.20;94.80
31819;DHT22;18384;48.860;9.188;2023-03-24T11:37:20;17.30;95.00
31819;DHT22;18384;48.860;9.188;2023-03-24T11:40:15;17.40;95.50
31819;DHT22;18384;48.860;9.188;2023-03-24T11:43:00;17.50;94.80
31819;DHT22;18384;48.860;9.188;2023-03-24T11:45:37;17.40;94.40
31819;DHT22;18384;48.860;9.188;2023-03-24T11:51:32;17.10;94.80
31819;DHT22;18384;48.860;9.188;2023-03-24T11:54:02;17.00;95.30
31819;DHT22;18384;48.860;9.188;2023-03-24T11:56:40;16.80;95.50
31819;DHT22;18384;48.860;9.188;2023-03-24T11:59:32;16.80;96.10
31819;DHT22;18384;48.860;9.188;2023-03-24T12:06:21;16.60;97.60
31819;DHT22;18384;48.860;9.188;2023-03-24T12:12:09;16.30;97.50
31819;DHT22;18384;48.860;9.188;2023-03-24T12:18:33;16.10;97.10
31819;DHT22;18384;48.860;9.188;2023-03-24T12:21:22;16.20;97.00
31819;DHT22;18384;48.860;9.188;2023-03-24T12:25:19;16.40;96.60
31819;DHT22;18384;48.860;9.188;2023-03-24T12:40:34;16.80;96.00
31819;DHT22;18384;48.860;9.188;2023-03-24T12:43:26;16.60;95.30
31819;DHT22;18384;48.860;9.188;2023-03-24T12:49:47;15.60;95.20
31819;DHT22;18384;48.860;9.188;2023-03-24T12:59:32;16.40;95.20
31819;DHT22;18384;48.860;9.188;2023-03-24T13:02:32;16.40;95.00
31819;DHT22;18384;48.860;9.188;2023-03-24T13:05:06;16.50;94.70
31819;DHT22;18384;48.860;9.188;2023-03-24T13:07:38;16.60;94.40
31819;DHT22;18384;48.860;9.188;2023-03-24T13:10:27;16.60;94.50
31819;DHT22;18384;48.860;9.188;2023-03-24T13:13:16;16.60;94.00
31819;DHT22;18384;48.860;9.188;2023-03-24T13:15:54;16.70;94.30
31819;DHT22;18384;48.860;9.188;2023-03-24T13:18:43;16.70;94.00
31819;DHT22;18384;48.860;9.188;2023-03-24T13:21:16;16.60;94.30
31819;DHT22;18384;48.860;9.188;2023-03-24T13:24:07;16.60;94.30
31819;DHT22;18384;48.860;9.188;2023-03-24T13:28:28;16.30;95.40
31819;DHT22;18384;48.860;9.188;2023-03-24T13:30:59;15.70;95.40
31819;DHT22;18384;48.860;9.188;2023-03-24T13:33:28;15.40;96.00
31819;DHT22;18384;48.860;9.188;2023-03-24T13:36:21;15.20;96.50
31819;DHT22;18384;48.860;9.188;2023-03-24T13:38:56;15.00;96.90
31819;DHT22;18384;48.860;9.188;2023-03-24T13:41:26;14.90;97.40
31819;DHT22;18384;48.860;9.188;2023-03-24T13:44:15;14.70;97.40
31819;DHT22;18384;48.860;9.188;2023-03-24T13:47:05;14.70;97.70
31819;DHT22;18384;48.860;9.188;2023-03-24T13:49:34;14.50;98.10
31819;DHT22;18384;48.860;9.188;2023-03-24T13:52:03;14.50;98.20
31819;DHT22;18384;48.860;9.188;2023-03-24T13:54:31;14.50;98.40
31819;DHT22;18384;48.860;9.188;2023-03-24T13:57:22;14.60;98.40
31819;DHT22;18384;48.860;9.188;2023-03-24T14:01:05;14.50;98.40
31819;DHT22;18384;48.860;9.188;2023-03-24T14:03:46;14.50;98.10
31819;DHT22;18384;48.860;9.188;2023-03-24T14:06:49;13.20;98.00
31819;DHT22;18384;48.860;9.188;2023-03-24T14:09:29;14.40;98.70
31819;DHT22;18384;48.860;9.188;2023-03-24T14:12:14;14.20;98.80
31819;DHT22;18384;48.860;9.188;2023-03-24T14:16:26;14.20;98.80
31819;DHT22;18384;48.860;9.188;2023-03-24T14:19:16;14.00;99.90
31819;DHT22;18384;48.860;9.188;2023-03-24T14:21:50;14.00;99.90
31819;DHT22;18384;48.860;9.188;2023-03-24T14:24:29;13.80;99.90
31819;DHT22;18384;48.860;9.188;2023-03-24T14:26:57;13.70;99.90
31819;DHT22;18384;48.860;9.188;2023-03-24T14:29:47;13.60;99.90
31819;DHT22;18384;48.860;9.188;2023-03-24T14:32:17;13.50;99.90
31819;DHT22;18384;48.860;9.188;2023-03-24T14:35:22;13.40;99.90
31819;DHT22;18384;48.860;9.188;2023-03-24T14:38:51;13.40;99.90
31819;DHT22;18384;48.860;9.188;2023-03-24T14:41:27;13.30;99.90
31819;DHT22;18384;48.860;9.188;2023-03-24T14:43:59;11.90;99.90
31819;DHT22;18384;48.860;9.188;2023-03-24T14:46:45;13.30;99.90
31819;DHT22;18384;48.860;9.188;2023-03-24T14:49:29;13.30;99.90
31819;DHT22;18384;48.860;9.188;2023-03-24T14:52:08;13.20;99.90
31819;DHT22;18384;48.860;9.188;2023-03-24T14:54:39;13.10;99.90
31819;DHT22;18384;48.860;9.188;2023-03-24T14:57:26;13.10;99.90
31819;DHT22;18384;48.860;9.188;2023-03-24T15:06:47;13.20;99.90
31819;DHT22;18384;48.860;9.188;2023-03-24T15:09:16;13.30;99.90
31819;DHT22;18384;48.860;9.188;2023-03-24T15:11:44;13.40;99.90
31819;DHT22;18384;48.860;9.188;2023-03-24T15:14:24;13.40;99.90
31819;DHT22;18384;48.860;9.188;2023-03-24T15:17:04;13.40;99.90
31819;DHT22;18384;48.860;9.188;2023-03-24T15:19:31;13.50;99.90
31819;DHT22;18384;48.860;9.188;2023-03-24T15:22:00;13.40;99.90
31819;DHT22;18384;48.860;9.188;2023-03-24T15:24:34;13.50;99.90
31819;DHT22;18384;48.860;9.188;2023-03-24T15:27:34;13.50;99.90
31819;DHT22;18384;48.860;9.188;2023-03-24T15:30:00;13.50;99.90
31819;DHT22;18384;48.860;9.188;2023-03-24T15:32:28;13.60;99.90
31819;DHT22;18384;48.860;9.188;2023-03-24T15:34:59;13.60;99.90
31819;DHT22;18384;48.860;9.188;2023-03-24T15:37:38;13.70;99.90
31819;DHT22;18384;48.860;9.188;2023-03-24T15:46:56;13.80;99.90
31819;DHT22;18384;48.860;9.188;2023-03-24T15:49:31;14.10;99.90
31819;DHT22;18384;48.860;9.188;2023-03-24T15:52:21;14.20;99.90
31819;DHT22;18384;48.860;9.188;2023-03-24T15:54:51;14.20;99.90
31819;DHT22;18384;48.860;9.188;2023-03-24T15:57:20;14.30;99.90
31819;DHT22;18384;48.860;9.188;2023-03-24T16:00:14;14.30;99.90
31819;DHT22;18384;48.860;9.188;2023-03-24T16:02:48;14.30;99.90
31819;DHT22;18384;48.860;9.188;2023-03-24T16:05:30;14.30;99.90
31819;DHT22;18384;48.860;9.188;2023-03-24T16:08:22;14.40;99.90
31819;DHT22;18384;48.860;9.188;2023-03-24T16:10:59;14.40;99.90
31819;DHT22;18384;48.860;9.188;2023-03-24T16:13:39;14.50;99.90
31819;DHT22;18384;48.860;9.188;2023-03-24T16:16:34;14.40;99.90
31819;DHT22;18384;48.860;9.188;2023-03-24T16:19:01;14.40;99.90
31819;DHT22;18384;48.860;9.188;2023-03-24T16:21:29;14.50;99.90
31819;DHT22;18384;48.860;9.188;2023-03-24T16:23:56;14.50;99.90
31819;DHT22;18384;48.860;9.188;2023-03-24T16:26:28;14.50;99.90
31819;DHT22;18384;48.860;9.188;2023-03-24T16:29:03;14.30;99.90
31819;DHT22;18384;48.860;9.188;2023-03-24T16:31:45;14.30;99.90
31819;DHT22;18384;48.860;9.188;2023-03-24T16:34:21;14.20;99.90
31819;DHT22;18384;48.860;9.188;2023-03-24T16:36:50;14.20;99.90
31819;DHT22;18384;48.860;9.188;2023-03-24T16:39:22;14.10;99.90
31819;DHT22;18384;48.860;9.188;2023-03-24T16:41:50;14.00;99.90
31819;DHT22;18384;48.860;9.188;2023-03-24T16:44:17;13.90;99.90
31819;DHT22;18384;48.860;9.188;2023-03-24T16:46:45;13.90;99.90
31819;DHT22;18384;48.860;9.188;2023-03-24T16:49:14;13.90;99.90
31819;DHT22;18384;48.860;9.188;2023-03-24T16:51:41;13.90;99.90
31819;DHT22;18384;48.860;9.188;2023-03-24T16:54:07;14.00;99.90
31819;DHT22;18384;48.860;9.188;2023-03-24T16:56:34;13.90;99.90
31819;DHT22;18384;48.860;9.188;2023-03-24T16:59:04;13.80;99.90
31819;DHT22;18384;48.860;9.188;2023-03-24T17:01:36;13.70;99.90
31819;DHT22;18384;48.860;9.188;2023-03-24T17:04:17;13.70;99.90
31819;DHT22;18384;48.860;9.188;2023-03-24T17:06:47;13.60;99.90
31819;DHT22;18384;48.860;9.188;2023-03-24T17:09:17;13.50;99.90
31819;DHT22;18384;48.860;9.188;2023-03-24T17:11:51;13.60;99.90
31819;DHT22;18384;48.860;9.188;2023-03-24T17:14:18;13.60;99.90
31819;DHT22;18384;48.860;9.188;2023-03-24T17:16:45;13.50;99.90
31819;DHT22;18384;48.860;9.188;2023-03-24T17:19:19;13.50;99.90
31819;DHT22;18384;48.860;9.188;2023-03-24T17:21:51;13.40;99.90
31819;DHT22;18384;48.860;9.188;2023-03-24T17:24:24;13.30;99.90
31819;DHT22;18384;48.860;9.188;2023-03-24T17:26:50;13.20;99.90
31819;DHT22;18384;48.860;9.188;2023-03-24T17:29:16;13.20;99.90
31819;DHT22;18384;48.860;9.188;2023-03-24T17:31:42;13.20;99.90
31819;DHT22;18384;48.860;9.188;2023-03-24T17:34:13;13.20;99.90
31819;DHT22;18384;48.860;9.188;2023-03-24T17:36:39;13.20;99.90
31819;DHT22;18384;48.860;9.188;2023-03-24T17:39:05;13.10;99.90
31819;DHT22;18384;48.860;9.188;2023-03-24T17:41:35;13.10;99.90
31819;DHT22;18384;48.860;9.188;2023-03-24T17:44:01;13.10;99.90
31819;DHT22;18384;48.860;9.188;2023-03-24T17:46:27;13.10;99.90